To NAV CANADA Home Page Login to a new session Search on AWWS site Feedback and Comments Disclaimer Vers la page française équivalente Tips FAQ What's new on the site To the Forecasts and Observations / NOTAM section To "File a Flight Plan" website Publications and other links Update of the User's profile FIC Telephone Numbers My Weather Data Folder Route Weather Data Regional Weather Data Local Weather Data To the Forecasts and Observations / NOTAM section
Request Generated 08/29/2016 at 03:35:51 UTC . Weather information available at that time is displayed.

METAR/TAF

RANKIN INLET/NU    

METAR CYRT 290300Z 09006KT 15SM SCT006 OVC070 08/07 A3017 RMK ST4AC4
SLP219=
METAR CYRT 290200Z 09003KT 15SM BKN006 BKN065 08/07 A3017 RMK ST5SC2
SLP222=
METAR CYRT 290100Z 11004KT 10SM BKN005 08/07 A3017 RMK SC7 SLP221=

TAF AMD CYRT 290114Z 2901/2912 11005KT P6SM SCT005 BKN070 TEMPO
2901/2906 2SM -RA BR BKN005 OVC070
BECMG 2904/2906 08010KT
FM290600 08010KT 6SM BR OVC006 TEMPO 2906/2912 1/2SM -DZ FG
OVC002
RMK NXT FCST BY 290600Z=
Your time UTC time
Weather data provided by Environment Canada and NAV CANADA